• Join FlightAware (Why Join?)
  • Login
  • US Flag 
11:11PM EDT


 

Airport Tracker/Info


-or-


 

Live Flight TrackerFlight Track Log ✈ SKW6330 ✈ 26-Apr-2013 ✈ KMSN - KDEN

Flight Track Log - Related Links

Times and Time Zones

All times are in EDT time to prevent confusion due to time zone crossing. See the SKW6330 flight status page for this flight to view local times or setup timezone preferences in your user account.

Time Position Orientation Groundspeed Altitude Reporting Facility
EDT Latitude Longitude Course Direction KTS MPH feet Rate Location/Type
09:16AM 43.1086 -89.3536 264° West 127 146 2,800  Level Minneapolis Center
09:17AM 43.1039 -89.4200 264° West 171 197 4,800 2,220 Climbing Minneapolis Center
09:18AM 43.1033 -89.5064 270° West 212 244 7,400 2,760 Climbing Minneapolis Center
09:19AM 43.1050 -89.6161 271° West 242 278 10,700 2,580 Climbing Chicago Center
09:20AM 43.1072 -89.7183 272° West 261 300 13,000 1,800 Climbing Chicago Center
09:21AM 43.1078 -89.8325 270° West 291 335 14,500 1,620 Climbing Chicago Center
09:22AM 43.1094 -89.9717 271° West 324 373 16,400 1,740 Climbing Chicago Center
09:23AM 43.1122 -90.0964 272° West 331 381 18,200 1,740 Climbing Chicago Center
09:24AM 43.1117 -90.2175 270° West 321 369 20,100 1,680 Climbing Chicago Center
09:26AM 43.1131 -90.3372 271° West 323 372 21,700 1,560 Climbing Chicago Center
09:27AM 43.1142 -90.4811 271° West 319 367 23,300 1,080 Climbing Chicago Center
09:28AM 43.1156 -90.6031 271° West 322 371 24,000 720 Climbing Chicago Center
09:29AM 43.1144 -90.7297 269° West 335 386 24,900 900 Climbing Chicago Center
09:30AM 43.1147 -90.8575 270° West 339 390 25,900 960 Climbing Chicago Center
09:31AM 43.1153 -90.9864 270° West 343 395 26,900 840 Climbing Chicago Center
09:32AM 43.1161 -91.1419 270° West 344 396 27,700 540 Climbing Chicago Center
09:33AM 43.1161 -91.2756 270° West 354 407 28,100 480 Climbing Chicago Center
09:34AM 43.1161 -91.4108 270° West 360 414 28,800 660 Climbing Chicago Center
09:35AM 43.1111 -91.5450 267° West 362 417 29,500 660 Climbing Minneapolis Center
09:36AM 43.1008 -91.7058 265° West 361 415 30,200 660 Climbing Minneapolis Center
09:37AM 43.0922 -91.8386 265° West 359 413 30,900 480 Climbing Minneapolis Center
09:38AM 43.0836 -91.9725 265° West 358 412 31,300 360 Climbing Minneapolis Center
09:39AM 43.0758 -92.1047 265° West 356 410 31,800 300 Climbing Minneapolis Center
09:40AM 43.0656 -92.2644 265° West 357 411 32,000 60 Climbing Minneapolis Center
09:41AM 43.0550 -92.4314 265° West 368 423 32,000  Level Minneapolis Center
09:42AM 43.0458 -92.5731 265° West 378 435 32,000  Level Minneapolis Center
09:43AM 43.0353 -92.7142 264° West 377 434 32,000  Level Minneapolis Center
09:44AM 43.0264 -92.8564 265° West 379 436 32,000  Level Minneapolis Center
09:45AM 43.0158 -92.9989 264° West 380 437 32,000  Level Minneapolis Center
09:46AM 43.0061 -93.1411 265° West 380 437 32,000  Level Minneapolis Center
09:47AM 42.9936 -93.3125 264° West 382 440 32,000  Level Minneapolis Center
09:48AM 42.9833 -93.4561 264° West 382 440 32,000  Level Minneapolis Center
09:50AM 42.9731 -93.5986 264° West 382 440 32,000  Level Minneapolis Center
09:51AM 42.9592 -93.7733 264° West 386 444 32,000  Level Minneapolis Center
09:52AM 42.9492 -93.9189 265° West 389 448 32,000  Level Minneapolis Center
09:53AM 42.9381 -94.0656 264° West 391 450 32,000  Level Minneapolis Center
09:54AM 42.9233 -94.2422 264° West 394 453 32,000  Level Minneapolis Center
09:55AM 42.9083 -94.3900 262° West 397 457 32,000  Level Minneapolis Center
09:56AM 42.8958 -94.5378 263° West 396 456 32,000  Level Minneapolis Center
09:57AM 42.8853 -94.6819 264° West 391 450 32,000  Level Minneapolis Center
09:58AM 42.8731 -94.8300 264° West 392 451 32,000  Level Minneapolis Center
09:59AM 42.8564 -95.0103 263° West 398 458 32,000  Level Minneapolis Center
10:00AM 42.8436 -95.1594 263° West 398 458 32,000  Level Minneapolis Center
10:01AM 42.8275 -95.3364 263° West 394 453 32,000  Level Minneapolis Center
10:02AM 42.8139 -95.4847 263° West 395 455 32,000  Level Minneapolis Center
10:03AM 42.8003 -95.6356 263° West 400 460 32,000  Level Minneapolis Center
10:04AM 42.7858 -95.7853 263° West 400 460 32,000  Level Minneapolis Center
10:05AM 42.7719 -95.9381 263° West 405 466 32,000  Level Minneapolis Center
10:06AM 42.7542 -96.1181 262° West 402 463 32,000  Level Minneapolis Center
10:07AM 42.7389 -96.2689 262° West 403 464 32,000  Level Minneapolis Center
10:09AM 42.7206 -96.4483 262° West 400 460 32,000  Level Minneapolis Center
10:10AM 42.7050 -96.5994 262° West 403 464 32,000  Level Minneapolis Center
10:11AM 42.6903 -96.7428 262° West 401 461 32,000  Level Minneapolis Center
10:12AM 42.6719 -96.9206 262° West 399 459 32,000  Level Minneapolis Center
10:13AM 42.6525 -97.0983 262° West 399 459 32,000  Level Minneapolis Center
10:14AM 42.6361 -97.2483 262° West 401 461 32,000  Level Minneapolis Center
10:15AM 42.6206 -97.3978 262° West 401 461 32,000  Level Minneapolis Center
10:16AM 42.6033 -97.5456 261° West 400 460 32,000  Level Minneapolis Center
10:17AM 42.5875 -97.6950 262° West 400 460 32,000  Level Minneapolis Center
10:18AM 42.5703 -97.8453 261° West 401 461 32,000  Level Minneapolis Center
10:19AM 42.5492 -98.0236 261° West 400 460 32,000  Level Minneapolis Center
10:20AM 42.5317 -98.1747 261° West 403 464 32,000  Level Minneapolis Center
10:21AM 42.5147 -98.3250 261° West 404 465 32,000  Level Minneapolis Center
10:22AM 42.4956 -98.4744 260° West 404 465 32,000  Level Minneapolis Center
10:23AM 42.4775 -98.6258 261° West 407 468 32,000  Level Minneapolis Center
10:24AM 42.4361 -98.7689 249° West 413 475 32,000  Level Minneapolis Center
10:25AM 42.3756 -98.9022 238° Southwest 415 478 32,000  Level Minneapolis Center
10:26AM 42.3028 -99.0633 239° Southwest 417 480 32,000  Level Minneapolis Center
10:27AM 42.2431 -99.1956 239° Southwest 416 479 32,000  Level Minneapolis Center
10:28AM 42.1831 -99.3267 238° Southwest 414 476 32,000  Level Minneapolis Center
10:29AM 42.1461 -99.4083 239° Southwest 417 480 32,000  Level Denver Center
10:31AM 42.0272 -99.6694 239° Southwest 410 472 32,000  Level Denver Center
10:32AM 41.9692 -99.8289 244° Southwest 413 475 32,000  Level Denver Center
10:33AM 41.9217 -99.9600 244° Southwest 412 474 32,000  Level Denver Center
10:34AM 41.8667 -100.1119 244° Southwest 408 470 32,000  Level Denver Center
10:35AM 41.8192 -100.2433 244° Southwest 409 471 32,000  Level Denver Center
10:36AM 41.7633 -100.3972 244° Southwest 412 474 32,000  Level Denver Center
10:37AM 41.7153 -100.5275 244° Southwest 410 472 32,000  Level Denver Center
10:38AM 41.6583 -100.6797 243° Southwest 411 473 32,000  Level Denver Center
10:39AM 41.6106 -100.8111 244° Southwest 412 474 32,000  Level Denver Center
10:40AM 41.5536 -100.9639 244° Southwest 413 475 32,000  Level Denver Center
10:41AM 41.5053 -101.0939 244° Southwest 413 475 32,000  Level Denver Center
10:42AM 41.4475 -101.2450 243° Southwest 411 473 32,000  Level Denver Center
10:43AM 41.3989 -101.3761 244° Southwest 413 475 32,000  Level Denver Center
10:44AM 41.3403 -101.5275 243° Southwest 415 478 32,000  Level Denver Center
10:45AM 41.2928 -101.6567 244° Southwest 411 473 32,000  Level Denver Center
10:47AM 41.2342 -101.8081 243° Southwest 413 475 32,000  Level Denver Center
10:48AM 41.1831 -101.9375 242° Southwest 413 475 32,000  Level Denver Center
10:49AM 41.1253 -102.0883 243° Southwest 412 474 32,000  Level Denver Center
10:50AM 41.0744 -102.2181 243° Southwest 414 476 32,000  Level Denver Center
10:51AM 41.0150 -102.3717 243° Southwest 418 481 32,000  Level Denver Center
10:52AM 40.9633 -102.5008 242° Southwest 417 480 32,000  Level Denver Center
10:53AM 40.9111 -102.6306 242° Southwest 419 482 32,000  Level Denver Center
10:54AM 40.8525 -102.7828 243° Southwest 418 481 32,000  Level Denver Center
10:55AM 40.7997 -102.9114 242° Southwest 417 480 32,000  Level Denver Center
10:56AM 40.7378 -103.0686 243° Southwest 422 486 32,000  Level Denver Center
10:57AM 40.6842 -103.2042 242° Southwest 416 479 32,000 -660 Level Denver Center
10:58AM 40.6278 -103.3417 242° Southwest 423 487 30,700 -2,160 Descending Denver Center
10:59AM 40.5728 -103.4778 242° Southwest 420 483 27,600 -3,000 Descending Denver Center
11:00AM 40.5175 -103.6111 241° Southwest 412 474 24,600 -2,940 Descending Denver Center
11:01AM 40.4650 -103.7389 242° Southwest 398 458 21,600 -3,180 Descending Denver Center
11:02AM 40.4083 -103.8814 242° Southwest 385 443 18,100 -2,400 Descending Denver Center
11:03AM 40.3606 -103.9922 241° Southwest 348 400 16,700 -1,620 Descending Denver Center
11:04AM 40.2908 -104.0717 221° Southwest 304 350 14,800 -1,740 Descending Denver Center
11:05AM 40.2097 -104.1056 198° South 300 345 13,100 -900 Descending Denver Center
11:06AM 40.1222 -104.1253 190° South 295 339 13,000 -300 Descending Denver Center
11:07AM 40.0444 -104.1392 188° South 286 329 12,600 -840 Descending Denver Center
11:08AM 39.9781 -104.1703 200° South 258 297 11,300 -1,260 Descending Denver Center
11:09AM 39.9469 -104.2508 243° Southwest 239 275 10,000 -780 Descending Denver Center
11:10AM 39.9233 -104.3344 250° West 246 283 9,700 -720 Descending Denver Center
11:11AM 39.9000 -104.4167 250° West 258 297 8,600 -1,020 Descending Denver TRACON
11:12AM 39.8833 -104.4833 252° West 212 244 7,900 -1,200 Descending Denver TRACON
11:13AM 39.8833 -104.5500 270° West 163 188 6,200 -1,200 Descending Denver TRACON
11:14AM 39.8833 -104.6000 270° West 144 166 5,500 -720 Descending Denver TRACON
11:17AM 39.8500 -104.6667 322° Northwest  Level FlightAware Approximate
11:24AM 39.8617 -104.6732 322° Northwest  Level Estimated
11:25AM 39.8617 -104.6732 322° Northwest  Level Estimated